Melba, Mississippi
Current Conditions -  °F | °C
As of 10:15 AM on Sunday 23 Nov 2014 (Local Time) from KPIB Reporting Station
Scattered Clouds Scattered Clouds  
Wind Chill: 64°   Ceiling: Unl
Heat Index: 64°   Visibility: 10mi
Dew Point: 61°   Wind: 9mph
Humidity: 88%   Direction: 140°SE
Pressure: 29.65"   Gusts: NA
Location:  31.3235°N, 89.5695°W
Report Text: KPIB 231615Z AUTO 14008KT 10SM FEW032 SCT039 18/16 A2965 RMK AO1 P0001
Loading
Personal Weather Stations






























Interactive Weather Map New forecast layout! Learn more

10-Day Weather Forecast

Advertisements
Track Severe Weather on mobile